createdAt,value
2018-05-13T00:00:22.552Z,62.74
2018-05-13T00:02:50.876Z,63.97
2018-05-13T00:05:19.276Z,63.36
2018-05-13T00:07:47.601Z,62.94
2018-05-13T00:10:15.928Z,63.42
2018-05-13T00:12:44.304Z,63.92
2018-05-13T00:15:12.615Z,64.62
2018-05-13T00:17:40.948Z,64.44
2018-05-13T00:20:09.250Z,63.46
2018-05-13T00:22:37.586Z,63.94
2018-05-13T00:25:06.042Z,65.15
2018-05-13T00:27:34.414Z,64.80
2018-05-13T00:30:02.697Z,65.00
2018-05-13T00:32:31.030Z,65.44
2018-05-13T00:34:59.337Z,64.58
2018-05-13T00:37:27.669Z,64.64
2018-05-13T00:39:55.974Z,65.66
2018-05-13T00:42:24.321Z,64.53
2018-05-13T00:44:52.624Z,64.64
2018-05-13T00:47:20.962Z,65.28
2018-05-13T00:49:49.264Z,65.74
2018-05-13T00:52:17.603Z,66.15
2018-05-13T00:54:55.852Z,65.98
2018-05-13T00:57:24.257Z,66.44
2018-05-13T00:59:52.553Z,66.80
2018-05-13T01:02:20.889Z,66.63
2018-05-13T01:04:49.261Z,66.93
2018-05-13T01:07:17.645Z,67.02
2018-05-13T01:09:46.369Z,66.86
2018-05-13T01:12:14.668Z,66.81
2018-05-13T01:14:43.085Z,67.48
2018-05-13T01:17:11.470Z,68.11
2018-05-13T01:19:39.883Z,68.64
2018-05-13T01:22:08.182Z,68.78
2018-05-13T01:24:36.588Z,68.71
2018-05-13T01:27:04.900Z,67.56
2018-05-13T01:29:33.224Z,67.32
2018-05-13T01:32:01.674Z,67.65
2018-05-13T01:34:30.109Z,69.25
2018-05-13T01:36:58.481Z,68.92
2018-05-13T01:39:28.152Z,68.11
2018-05-13T01:41:56.646Z,68.57
2018-05-13T01:44:24.982Z,69.19
2018-05-13T01:46:53.428Z,69.31
2018-05-13T01:49:22.793Z,69.46
2018-05-13T01:51:51.296Z,69.71
2018-05-13T01:54:19.593Z,69.48
2018-05-13T01:56:47.957Z,69.72
2018-05-13T01:59:16.277Z,70.34
2018-05-13T02:01:44.657Z,70.34
2018-05-13T02:04:13.296Z,70.41
2018-05-13T02:06:41.701Z,70.44
2018-05-13T02:09:10.065Z,70.71
2018-05-13T02:11:38.440Z,69.96
2018-05-13T02:14:06.934Z,70.92
2018-05-13T02:16:35.305Z,70.92
2018-05-13T02:19:03.940Z,70.99
2018-05-13T02:21:32.380Z,70.78
2018-05-13T02:24:01.010Z,70.56
2018-05-13T02:26:29.627Z,71.33
2018-05-13T02:28:58.016Z,71.30
2018-05-13T02:31:26.445Z,70.98
2018-05-13T02:33:55.094Z,72.21
2018-05-13T02:36:23.478Z,71.38
2018-05-13T02:38:51.781Z,70.90
2018-05-13T02:41:20.126Z,70.85
2018-05-13T02:43:48.453Z,70.81
2018-05-13T02:46:16.901Z,70.97
2018-05-13T02:48:45.246Z,71.63
2018-05-13T02:51:13.705Z,71.37
2018-05-13T02:53:42.091Z,71.25
2018-05-13T02:56:10.410Z,71.40
2018-05-13T02:58:38.926Z,72.25
2018-05-13T03:01:07.377Z,73.06
2018-05-13T03:03:35.749Z,72.44
2018-05-13T03:06:04.053Z,72.36
2018-05-13T03:08:32.400Z,71.56
2018-05-13T03:11:00.712Z,72.24
2018-05-13T03:13:29.140Z,72.18
2018-05-13T03:15:57.448Z,73.09
2018-05-13T03:18:25.962Z,73.79
2018-05-13T03:20:54.533Z,73.12
2018-05-13T03:23:23.013Z,72.95
2018-05-13T03:25:51.403Z,73.07
2018-05-13T03:28:19.807Z,73.01
2018-05-13T03:30:48.197Z,73.37
2018-05-13T03:33:16.508Z,74.56
2018-05-13T03:35:44.833Z,74.59
2018-05-13T03:38:13.129Z,75.11
2018-05-13T03:40:41.469Z,74.49
2018-05-13T03:43:09.856Z,73.68
2018-05-13T03:45:38.254Z,73.64
2018-05-13T03:48:06.577Z,73.96
2018-05-13T03:50:35.006Z,72.71
2018-05-13T03:53:03.320Z,72.78
2018-05-13T03:55:31.656Z,73.79
2018-05-13T03:57:59.967Z,74.06
2018-05-13T04:00:28.309Z,75.05
2018-05-13T04:02:56.747Z,75.71
2018-05-13T04:05:25.936Z,75.22
2018-05-13T04:11:10.989Z,72.18
2018-05-13T04:13:51.128Z,71.50
2018-05-13T04:16:19.454Z,73.17
2018-05-13T04:18:47.797Z,74.17
2018-05-13T04:21:16.141Z,73.26
2018-05-13T04:23:44.557Z,73.22
2018-05-13T04:26:12.913Z,73.61
2018-05-13T04:28:41.223Z,74.29
2018-05-13T04:31:09.523Z,73.92
2018-05-13T04:33:37.865Z,74.18
2018-05-13T04:36:06.211Z,72.86
2018-05-13T04:38:34.623Z,73.04
2018-05-13T04:41:02.951Z,73.17
2018-05-13T04:43:31.377Z,73.76
2018-05-13T04:45:59.701Z,73.79
2018-05-13T04:48:28.040Z,73.30
2018-05-13T04:50:56.358Z,72.48
2018-05-13T04:53:24.727Z,71.78
2018-05-13T04:55:53.018Z,72.49
2018-05-13T04:58:21.397Z,71.81
2018-05-13T05:00:49.709Z,71.17
2018-05-13T05:03:18.041Z,70.53
2018-05-13T05:05:46.353Z,70.32
2018-05-13T05:08:14.693Z,70.40
2018-05-13T05:10:43.026Z,71.01
2018-05-13T05:13:11.364Z,70.82
2018-05-13T05:15:39.697Z,70.10
2018-05-13T05:18:08.044Z,69.55
2018-05-13T05:20:36.440Z,69.66
2018-05-13T05:23:04.816Z,69.03
2018-05-13T05:25:33.202Z,68.85
2018-05-13T05:28:01.578Z,68.78
2018-05-13T05:30:29.955Z,68.29
2018-05-13T05:32:58.297Z,67.84
2018-05-13T05:35:26.753Z,67.34
2018-05-13T05:37:55.053Z,67.39
2018-05-13T05:40:23.378Z,66.82
2018-05-13T05:42:51.743Z,67.16
2018-05-13T05:45:20.081Z,66.03
2018-05-13T05:47:48.398Z,66.24
2018-05-13T05:50:16.738Z,66.25
2018-05-13T05:52:45.030Z,66.09
2018-05-13T05:55:13.356Z,65.99
2018-05-13T05:57:41.664Z,64.75
2018-05-13T06:00:10.078Z,64.96
2018-05-13T06:02:38.460Z,63.97
2018-05-13T06:05:06.840Z,64.99
2018-05-13T06:07:35.148Z,64.18
2018-05-13T06:10:03.492Z,63.92
2018-05-13T06:12:31.872Z,63.16
2018-05-13T06:15:00.290Z,63.41
2018-05-13T06:17:28.629Z,63.20
2018-05-13T06:19:57.047Z,62.94
2018-05-13T06:22:25.389Z,63.03
2018-05-13T06:24:53.701Z,62.84
2018-05-13T06:27:22.037Z,62.15
2018-05-13T06:29:50.417Z,62.03
2018-05-13T06:32:18.789Z,61.78
2018-05-13T06:34:47.097Z,61.49
2018-05-13T06:37:15.445Z,61.43
2018-05-13T06:39:43.885Z,61.28
2018-05-13T06:42:12.169Z,60.86
2018-05-13T06:44:40.509Z,60.90
2018-05-13T06:47:08.865Z,60.55
2018-05-13T06:49:37.171Z,61.21
2018-05-13T06:52:05.511Z,61.29
2018-05-13T06:54:33.824Z,61.18
2018-05-13T06:57:02.169Z,60.69
2018-05-13T06:59:30.482Z,60.44
2018-05-13T07:01:58.834Z,60.13
2018-05-13T07:04:27.197Z,59.93
2018-05-13T07:06:55.529Z,59.60
2018-05-13T07:09:23.858Z,59.20
2018-05-13T07:11:52.244Z,59.56
2018-05-13T07:14:20.614Z,59.11
2018-05-13T07:16:48.989Z,58.77
2018-05-13T07:19:17.354Z,58.59
2018-05-13T07:21:45.749Z,58.46
2018-05-13T07:24:14.120Z,58.52
2018-05-13T07:26:48.280Z,58.81
2018-05-13T07:29:16.612Z,58.68
2018-05-13T07:31:44.922Z,58.69
2018-05-13T07:34:13.249Z,58.58
2018-05-13T07:36:41.569Z,58.09
2018-05-13T07:39:09.921Z,57.95
2018-05-13T07:41:38.232Z,57.89
2018-05-13T07:44:06.581Z,57.43
2018-05-13T07:46:34.894Z,57.48
2018-05-13T07:49:03.237Z,57.39
2018-05-13T07:51:31.550Z,56.93
2018-05-13T07:53:59.996Z,56.61
2018-05-13T07:56:28.324Z,55.92
2018-05-13T07:58:56.758Z,56.45
2018-05-13T08:01:25.143Z,55.83
2018-05-13T08:03:53.477Z,56.06
2018-05-13T08:06:21.819Z,55.38
2018-05-13T08:08:50.162Z,56.01
2018-05-13T08:11:18.475Z,56.06
2018-05-13T08:13:46.881Z,55.57
2018-05-13T08:16:15.191Z,54.64
2018-05-13T08:18:43.522Z,54.65
2018-05-13T08:21:11.907Z,54.86
2018-05-13T08:23:40.226Z,54.51
2018-05-13T08:26:08.578Z,54.65
2018-05-13T08:28:36.894Z,54.16
2018-05-13T08:31:05.235Z,53.03
2018-05-13T08:33:33.558Z,53.70
2018-05-13T08:36:01.938Z,53.78
2018-05-13T08:38:30.246Z,53.98
2018-05-13T08:40:58.572Z,53.43
2018-05-13T08:43:26.907Z,52.78
2018-05-13T08:45:55.245Z,52.49
2018-05-13T08:48:23.639Z,51.64
2018-05-13T08:50:51.901Z,52.05
2018-05-13T08:53:20.237Z,52.50
2018-05-13T08:55:48.572Z,51.53
2018-05-13T08:58:16.898Z,51.02
2018-05-13T09:00:45.239Z,51.86
2018-05-13T09:03:13.553Z,51.16
2018-05-13T09:05:41.898Z,51.60
2018-05-13T09:08:10.248Z,50.44
2018-05-13T09:10:38.657Z,50.50
2018-05-13T09:13:06.993Z,50.52
2018-05-13T09:15:35.314Z,50.41
2018-05-13T09:18:03.634Z,50.79
2018-05-13T09:20:32.089Z,50.28
2018-05-13T09:23:00.392Z,49.54
2018-05-13T09:25:28.761Z,49.56
2018-05-13T09:27:57.147Z,49.83
2018-05-13T09:30:25.464Z,50.20
2018-05-13T09:32:53.816Z,48.98
2018-05-13T09:35:22.097Z,48.14
2018-05-13T09:37:50.445Z,47.87
2018-05-13T09:40:19.432Z,48.74
2018-05-13T09:42:47.777Z,48.42
2018-05-13T09:45:16.210Z,47.43
2018-05-13T09:47:44.667Z,48.25
2018-05-13T09:50:13.052Z,47.87
2018-05-13T09:52:41.364Z,47.90
2018-05-13T09:55:09.692Z,47.78
2018-05-13T09:57:38.130Z,48.16
2018-05-13T10:00:06.372Z,47.45
2018-05-13T10:02:34.772Z,46.57
2018-05-13T10:05:03.109Z,47.09
2018-05-13T10:07:31.441Z,45.42
2018-05-13T10:09:59.846Z,45.84
2018-05-13T10:12:28.095Z,46.74
2018-05-13T10:14:56.437Z,45.87
2018-05-13T10:17:24.811Z,45.80
2018-05-13T10:19:53.192Z,45.32
2018-05-13T10:22:21.566Z,45.82
2018-05-13T10:24:49.896Z,45.41
2018-05-13T10:27:18.232Z,45.58
2018-05-13T10:29:46.693Z,46.00
2018-05-13T10:32:15.073Z,44.87
2018-05-13T10:34:43.401Z,44.04
2018-05-13T10:37:11.732Z,45.31
2018-05-13T10:39:40.058Z,44.52
2018-05-13T10:42:08.426Z,44.68
2018-05-13T10:44:36.718Z,44.26
2018-05-13T10:47:05.058Z,44.09
2018-05-13T10:49:33.409Z,43.90
2018-05-13T10:52:01.838Z,42.56
2018-05-13T10:54:30.139Z,42.12
2018-05-13T10:56:58.557Z,41.87
2018-05-13T10:59:26.932Z,42.73
2018-05-13T11:01:55.282Z,43.02
2018-05-13T11:04:23.593Z,42.11
2018-05-13T11:06:51.924Z,40.00
2018-05-13T11:09:20.338Z,38.61
2018-05-13T11:11:48.684Z,39.05
2018-05-13T11:14:17.006Z,37.53
2018-05-13T11:16:45.318Z,38.68
2018-05-13T11:19:13.856Z,40.26
2018-05-13T11:21:42.240Z,41.24
2018-05-13T11:24:10.574Z,41.99
2018-05-13T11:26:38.993Z,41.78
2018-05-13T11:29:07.379Z,42.79
2018-05-13T11:31:35.751Z,42.02
2018-05-13T11:34:04.131Z,41.03
2018-05-13T11:36:32.445Z,39.53
2018-05-13T11:39:00.787Z,37.35
2018-05-13T11:41:29.101Z,39.13
2018-05-13T11:43:57.536Z,39.00
2018-05-13T11:46:25.857Z,35.97
2018-05-13T11:48:54.196Z,34.23
2018-05-13T11:51:22.574Z,33.60
2018-05-13T11:53:50.948Z,33.29
2018-05-13T11:56:19.271Z,33.92
2018-05-13T11:58:47.610Z,31.01
2018-05-13T12:01:15.926Z,31.89
2018-05-13T12:03:44.238Z,31.78
2018-05-13T12:06:12.582Z,34.18
2018-05-13T12:08:40.899Z,35.98
2018-05-13T12:11:09.290Z,38.29
2018-05-13T12:13:37.598Z,38.23
2018-05-13T12:16:05.933Z,38.94
2018-05-13T12:18:34.369Z,36.53
2018-05-13T12:21:02.779Z,33.04
2018-05-13T12:23:31.081Z,30.11
2018-05-13T12:25:59.472Z,30.32
2018-05-13T12:28:27.845Z,29.23
2018-05-13T12:30:56.237Z,28.85
2018-05-13T12:33:24.542Z,28.09
2018-05-13T12:35:52.892Z,27.05
2018-05-13T12:38:21.219Z,28.78
2018-05-13T12:40:49.618Z,29.12
2018-05-13T12:43:17.933Z,28.84
2018-05-13T12:45:46.254Z,27.04
2018-05-13T12:48:14.606Z,27.65
2018-05-13T12:50:42.905Z,27.74
2018-05-13T12:53:11.355Z,27.22
2018-05-13T12:55:39.679Z,29.53
2018-05-13T12:58:08.012Z,27.54
2018-05-13T13:00:36.337Z,29.21
2018-05-13T13:03:04.676Z,32.31
2018-05-13T13:05:32.984Z,33.20
2018-05-13T13:08:01.316Z,32.38
2018-05-13T13:10:29.656Z,29.26
2018-05-13T13:12:58.021Z,28.44
2018-05-13T13:15:26.408Z,29.10
2018-05-13T13:17:54.829Z,31.74
2018-05-13T13:20:23.117Z,32.86
2018-05-13T13:22:51.477Z,33.03
2018-05-13T13:25:19.799Z,29.54
2018-05-13T13:27:48.195Z,26.31
2018-05-13T13:30:16.506Z,27.62
2018-05-13T13:32:44.855Z,26.98
2018-05-13T13:35:13.169Z,26.82
2018-05-13T13:37:41.560Z,24.96
2018-05-13T13:40:09.925Z,28.91
2018-05-13T13:42:38.216Z,27.76
2018-05-13T13:45:06.644Z,25.58
2018-05-13T13:47:34.954Z,25.48
2018-05-13T13:50:03.396Z,27.14
2018-05-13T13:52:31.784Z,25.99
2018-05-13T13:55:00.152Z,25.07
2018-05-13T13:57:29.262Z,23.66
2018-05-13T13:59:57.627Z,23.12
2018-05-13T14:02:26.008Z,22.57
2018-05-13T14:04:54.382Z,22.91
2018-05-13T14:07:22.694Z,22.45
2018-05-13T14:09:51.042Z,22.69
2018-05-13T14:12:19.349Z,20.89
2018-05-13T14:14:47.697Z,21.44
2018-05-13T14:17:16.117Z,19.88
2018-05-13T14:19:44.457Z,21.23
2018-05-13T14:22:12.781Z,21.58
2018-05-13T14:24:41.110Z,21.40
2018-05-13T14:27:09.488Z,22.15
2018-05-13T14:29:37.817Z,21.75
2018-05-13T14:32:06.236Z,20.67
2018-05-13T14:34:34.587Z,19.92
2018-05-13T14:37:02.988Z,19.85
2018-05-13T14:39:31.310Z,19.83
2018-05-13T14:41:59.749Z,20.67
2018-05-13T14:44:28.134Z,24.46
2018-05-13T14:46:56.505Z,26.41
2018-05-13T14:49:24.811Z,28.30
2018-05-13T14:51:53.141Z,28.99
2018-05-13T14:54:21.481Z,29.08
2018-05-13T14:56:49.837Z,29.26
2018-05-13T14:59:18.193Z,29.11
2018-05-13T15:01:46.529Z,29.83
2018-05-13T15:04:14.906Z,29.77
2018-05-13T15:06:43.237Z,30.28
2018-05-13T15:09:11.611Z,30.62
2018-05-13T15:11:40.022Z,31.72
2018-05-13T15:14:08.375Z,32.17
2018-05-13T15:16:36.853Z,32.17
2018-05-13T15:19:05.121Z,33.59
2018-05-13T15:21:33.486Z,31.65
2018-05-13T15:24:01.830Z,33.81
